createdAt,value
2022-08-05T00:01:30.136Z,1.42
2022-08-05T00:04:03.331Z,1.92
2022-08-05T00:06:33.303Z,1.60
2022-08-05T00:09:03.857Z,1.80
2022-08-05T00:14:12.693Z,1.48
2022-08-05T00:16:52.358Z,1.70
2022-08-05T00:19:22.228Z,1.10
2022-08-05T00:21:48.931Z,1.50
2022-08-05T00:24:16.329Z,1.27
2022-08-05T00:26:52.187Z,1.45
2022-08-05T00:29:22.730Z,1.52
2022-08-05T00:32:10.882Z,1.45
2022-08-05T00:34:43.362Z,1.63
2022-08-05T00:37:26.866Z,1.27
2022-08-05T00:40:13.434Z,1.77
2022-08-05T00:42:44.167Z,1.50
2022-08-05T00:45:15.784Z,1.50
2022-08-05T00:47:57.169Z,1.45
2022-08-05T00:50:28.929Z,1.13
2022-08-05T00:52:55.515Z,1.10
2022-08-05T00:55:23.421Z,1.25
2022-08-05T00:58:11.315Z,1.15
2022-08-05T01:00:38.636Z,1.25
2022-08-05T01:03:07.595Z,1.00
2022-08-05T01:05:35.079Z,1.10
2022-08-05T01:08:41.182Z,1.20
2022-08-05T01:11:02.667Z,0.88
2022-08-05T01:13:58.835Z,1.75
2022-08-05T01:16:52.461Z,1.20
2022-08-05T01:19:30.145Z,1.00
2022-08-05T01:22:28.055Z,1.35
2022-08-05T01:25:24.271Z,1.25
2022-08-05T01:28:16.857Z,1.40
2022-08-05T01:30:55.064Z,1.20
2022-08-05T01:33:25.337Z,1.58
2022-08-05T01:35:55.189Z,1.25
2022-08-05T01:38:29.165Z,1.10
2022-08-05T01:41:17.030Z,1.17
2022-08-05T01:43:50.834Z,1.58
2022-08-05T01:46:42.559Z,1.45
2022-08-05T01:49:23.246Z,1.55
2022-08-05T01:51:54.027Z,1.90
2022-08-05T01:54:25.479Z,1.27
2022-08-05T01:58:09.315Z,1.65
2022-08-05T01:59:47.450Z,1.40
2022-08-05T02:02:16.048Z,1.25
2022-08-05T02:04:46.238Z,1.35
2022-08-05T02:07:22.077Z,1.60
2022-08-05T02:09:50.264Z,1.70
2022-08-05T02:12:32.882Z,1.52
2022-08-05T02:15:12.254Z,1.17
2022-08-05T02:18:33.135Z,1.42
2022-08-05T02:21:27.739Z,1.50
2022-08-05T02:24:07.151Z,2.28
2022-08-05T02:26:39.178Z,1.92
2022-08-05T02:29:24.274Z,1.10
2022-08-05T02:32:10.794Z,1.38
2022-08-05T02:34:38.245Z,1.63
2022-08-05T02:39:51.653Z,1.60
2022-08-05T02:42:25.756Z,1.40
2022-08-05T02:44:53.152Z,1.30
2022-08-05T02:47:21.702Z,1.50
2022-08-05T02:49:49.733Z,1.65
2022-08-05T02:54:58.588Z,2.88
2022-08-05T02:58:10.421Z,1.50
2022-08-05T03:00:16.953Z,1.20
2022-08-05T03:02:46.757Z,1.33
2022-08-05T03:05:15.093Z,1.33
2022-08-05T03:08:06.705Z,1.50
2022-08-05T03:10:29.640Z,1.15
2022-08-05T03:15:23.507Z,1.20
2022-08-05T03:17:50.448Z,0.93
2022-08-05T03:20:20.880Z,1.25
2022-08-05T03:22:50.144Z,1.60
2022-08-05T03:26:04.039Z,1.20
2022-08-05T03:28:10.490Z,1.50
2022-08-05T03:30:41.103Z,1.40
2022-08-05T03:33:09.317Z,1.67
2022-08-05T03:35:40.805Z,1.20
2022-08-05T03:38:11.482Z,1.58
2022-08-05T03:40:45.222Z,2.15
2022-08-05T03:44:08.972Z,1.60
2022-08-05T03:46:15.503Z,1.48
2022-08-05T03:48:45.324Z,1.35
2022-08-05T03:55:53.358Z,1.48
2022-08-05T03:56:58.906Z,1.90
2022-08-05T03:59:46.912Z,2.05
2022-08-05T04:02:17.563Z,1.98
2022-08-05T04:05:03.178Z,1.63
2022-08-05T04:07:30.917Z,1.17
2022-08-05T04:10:02.900Z,2.08
2022-08-05T04:12:29.965Z,1.35
2022-08-05T04:14:59.781Z,1.52
2022-08-05T04:17:55.460Z,1.70
2022-08-05T04:20:21.395Z,1.50
2022-08-05T04:22:50.301Z,1.55
2022-08-05T04:25:17.253Z,1.75
2022-08-05T04:27:58.214Z,1.65
2022-08-05T04:30:26.649Z,1.58
2022-08-05T04:32:53.224Z,1.48
2022-08-05T04:35:20.059Z,1.45
2022-08-05T04:38:02.829Z,1.30
2022-08-05T04:40:35.306Z,1.17
2022-08-05T04:43:01.953Z,1.25
2022-08-05T04:45:48.433Z,1.70
2022-08-05T04:48:16.573Z,1.17
2022-08-05T04:51:03.264Z,1.65
2022-08-05T04:53:36.440Z,1.27
2022-08-05T04:56:32.765Z,1.05
2022-08-05T04:58:53.111Z,1.05
2022-08-05T05:02:04.011Z,1.02
2022-08-05T05:04:06.011Z,1.50
2022-08-05T05:06:39.907Z,1.25
2022-08-05T05:09:14.022Z,0.95
2022-08-05T05:11:55.616Z,0.90
2022-08-05T05:14:31.843Z,1.40
2022-08-05T05:17:01.912Z,1.33
2022-08-05T05:19:36.358Z,1.10
2022-08-05T05:22:24.338Z,0.90
2022-08-05T05:24:58.536Z,1.30
2022-08-05T05:30:15.601Z,0.90
2022-08-05T05:32:55.832Z,1.00
2022-08-05T05:35:23.073Z,1.77
2022-08-05T05:37:59.624Z,1.02
2022-08-05T05:40:28.487Z,1.08
2022-08-05T05:42:56.295Z,0.98
2022-08-05T05:45:24.781Z,0.60
2022-08-05T05:48:06.011Z,0.98
2022-08-05T05:50:43.846Z,0.80
2022-08-05T05:53:21.034Z,0.73
2022-08-05T05:55:52.328Z,0.60
2022-08-05T05:58:30.344Z,0.70
2022-08-05T06:01:12.263Z,0.80
2022-08-05T06:04:01.198Z,0.90
2022-08-05T06:06:31.028Z,0.63
2022-08-05T06:08:59.865Z,0.52
2022-08-05T06:11:26.364Z,0.70
2022-08-05T06:13:55.736Z,0.50
2022-08-05T06:16:28.396Z,1.00
2022-08-05T06:18:59.942Z,1.00
2022-08-05T06:21:36.855Z,0.63
2022-08-05T06:24:11.434Z,0.82
2022-08-05T06:26:51.105Z,0.52
2022-08-05T06:29:25.248Z,0.93
2022-08-05T06:32:26.217Z,0.73
2022-08-05T06:34:56.286Z,0.70
2022-08-05T06:37:56.301Z,0.60
2022-08-05T06:40:20.792Z,0.70
2022-08-05T06:45:44.874Z,0.60
2022-08-05T06:48:36.960Z,0.50
2022-08-05T06:50:57.211Z,0.60
2022-08-05T06:53:28.547Z,1.05
2022-08-05T06:56:00.050Z,0.40
2022-08-05T06:58:35.152Z,0.30
2022-08-05T07:01:05.598Z,0.60
2022-08-05T07:03:33.343Z,0.63
2022-08-05T07:08:32.837Z,0.60
2022-08-05T07:10:59.586Z,0.52
2022-08-05T07:13:58.779Z,0.50
2022-08-05T07:17:59.395Z,0.50
2022-08-05T07:22:22.438Z,0.60
2022-08-05T07:24:56.297Z,0.75
2022-08-05T07:27:22.909Z,0.50
2022-08-05T07:30:24.136Z,0.30
2022-08-05T07:32:43.291Z,0.50
2022-08-05T07:36:03.792Z,0.85
2022-08-05T07:38:00.513Z,0.38
2022-08-05T07:40:32.061Z,0.77
2022-08-05T07:42:59.170Z,0.57
2022-08-05T07:45:31.166Z,0.40
2022-08-05T07:48:12.613Z,0.50
2022-08-05T07:50:39.938Z,0.50
2022-08-05T07:53:09.111Z,0.50
2022-08-05T07:56:04.905Z,0.32
2022-08-05T07:58:58.539Z,0.43
2022-08-05T08:01:12.889Z,0.40
2022-08-05T08:03:44.332Z,0.55
2022-08-05T08:06:11.500Z,0.20
2022-08-05T08:08:38.139Z,0.43
2022-08-05T08:11:04.817Z,0.52
2022-08-05T08:13:42.696Z,0.65
2022-08-05T08:16:34.808Z,0.47
2022-08-05T08:19:02.376Z,0.30
2022-08-05T08:21:28.821Z,0.30
2022-08-05T08:24:01.801Z,0.50
2022-08-05T08:26:30.998Z,0.40
2022-08-05T08:29:09.763Z,0.25
2022-08-05T08:31:46.281Z,0.35
2022-08-05T08:34:14.866Z,0.20
2022-08-05T08:36:48.851Z,0.20
2022-08-05T08:39:19.210Z,0.70
2022-08-05T08:41:51.858Z,0.50
2022-08-05T08:45:18.820Z,0.35
2022-08-05T08:48:05.618Z,0.43
2022-08-05T08:50:30.425Z,0.10
2022-08-05T08:53:07.879Z,0.52
2022-08-05T08:56:02.666Z,0.30
2022-08-05T08:58:37.073Z,0.47
2022-08-05T09:01:15.599Z,0.30
2022-08-05T09:03:45.701Z,0.20
2022-08-05T09:06:16.943Z,0.20
2022-08-05T09:08:45.350Z,0.20
2022-08-05T09:11:13.832Z,0.20
2022-08-05T09:14:10.013Z,0.43
2022-08-05T09:16:28.103Z,0.20
2022-08-05T09:18:55.384Z,0.15
2022-08-05T09:22:21.852Z,0.10
2022-08-05T09:24:13.092Z,0.20
2022-08-05T09:26:43.711Z,0.10
2022-08-05T09:29:10.845Z,0.13
2022-08-05T09:32:51.841Z,0.20
2022-08-05T09:34:56.126Z,0.13
2022-08-05T09:38:16.987Z,0.05
2022-08-05T09:40:36.380Z,0.15
2022-08-05T09:43:08.405Z,0.08
2022-08-05T09:46:07.168Z,0.10
2022-08-05T09:48:30.675Z,0.38
2022-08-05T09:51:04.315Z,0.10
2022-08-05T09:53:54.703Z,0.10
2022-08-05T09:56:31.125Z,0.43
2022-08-05T09:59:00.249Z,0.20
2022-08-05T10:01:31.692Z,0.20
2022-08-05T10:04:04.577Z,0.20
2022-08-05T10:06:59.572Z,0.10
2022-08-05T10:09:29.464Z,0.10
2022-08-05T10:12:18.599Z,0.20
2022-08-05T10:15:21.023Z,0.20
2022-08-05T10:18:16.658Z,0.20
2022-08-05T10:20:52.564Z,0.20
2022-08-05T10:23:34.354Z,0.30
2022-08-05T10:26:14.368Z,0.32
2022-08-05T10:28:42.951Z,0.20
2022-08-05T10:32:47.090Z,0.20
2022-08-05T10:33:59.325Z,0.17
2022-08-05T10:36:27.152Z,0.10
2022-08-05T10:39:10.153Z,0.20
2022-08-05T10:41:47.387Z,0.32
2022-08-05T10:44:18.113Z,0.40
2022-08-05T10:46:53.960Z,0.05
2022-08-05T10:49:27.079Z,0.25
2022-08-05T10:52:03.253Z,0.20
2022-08-05T10:54:56.832Z,0.10
2022-08-05T10:57:30.909Z,0.00
2022-08-05T11:00:23.124Z,0.30
2022-08-05T11:02:58.937Z,0.30
2022-08-05T11:06:16.032Z,0.35
2022-08-05T11:09:16.755Z,0.60
2022-08-05T11:11:53.581Z,0.30
2022-08-05T11:17:58.769Z,0.45
2022-08-05T11:20:44.660Z,0.20
2022-08-05T11:23:33.702Z,0.25
2022-08-05T11:26:28.384Z,0.40
2022-08-05T11:29:06.581Z,0.30
2022-08-05T11:31:54.115Z,0.20
2022-08-05T11:34:51.125Z,0.40
2022-08-05T11:38:37.323Z,0.08
2022-08-05T11:41:34.701Z,0.28
2022-08-05T11:44:06.033Z,0.30
2022-08-05T11:47:09.488Z,0.20
2022-08-05T11:49:25.461Z,0.30
2022-08-05T11:51:57.726Z,0.20
2022-08-05T11:54:33.489Z,0.13
2022-08-05T11:57:08.012Z,0.20
2022-08-05T11:59:49.492Z,0.63
2022-08-05T12:02:30.420Z,0.30
2022-08-05T12:04:59.293Z,0.40
2022-08-05T12:08:08.341Z,0.30
2022-08-05T12:10:17.185Z,0.50
2022-08-05T12:12:58.379Z,0.20
2022-08-05T12:15:35.811Z,0.20
2022-08-05T12:18:11.969Z,0.10
2022-08-05T12:20:39.415Z,0.20
2022-08-05T12:23:13.503Z,0.20
2022-08-05T12:25:53.723Z,0.55
2022-08-05T12:28:37.586Z,0.55
2022-08-05T12:31:04.997Z,0.20
2022-08-05T12:33:37.219Z,0.32
2022-08-05T12:38:39.601Z,0.20
2022-08-05T12:41:16.380Z,0.10
2022-08-05T12:44:28.592Z,0.30
2022-08-05T12:47:01.642Z,0.35
2022-08-05T12:50:04.682Z,0.20
2022-08-05T12:52:30.421Z,0.10
2022-08-05T12:55:02.207Z,0.10
2022-08-05T12:58:38.644Z,0.10
2022-08-05T13:02:03.860Z,0.22
2022-08-05T13:03:12.041Z,0.20
2022-08-05T13:05:41.184Z,0.35
2022-08-05T13:08:08.851Z,0.32
2022-08-05T13:10:50.635Z,0.10
2022-08-05T13:14:04.992Z,0.25
2022-08-05T13:16:12.969Z,0.65
2022-08-05T13:18:57.678Z,0.30
2022-08-05T13:21:27.828Z,0.20
2022-08-05T13:24:04.384Z,0.13
2022-08-05T13:26:31.119Z,0.38
2022-08-05T13:28:59.204Z,0.45
2022-08-05T13:31:34.006Z,0.20
2022-08-05T13:34:21.506Z,0.13
2022-08-05T13:36:52.017Z,0.20
2022-08-05T13:39:24.382Z,0.45
2022-08-05T13:42:05.111Z,0.20
2022-08-05T13:44:32.741Z,0.30
2022-08-05T13:47:01.952Z,0.50
2022-08-05T13:49:31.594Z,0.77
2022-08-05T13:52:35.221Z,0.35
2022-08-05T13:55:07.980Z,0.35
2022-08-05T13:57:51.089Z,0.60
2022-08-05T14:00:27.077Z,0.70
2022-08-05T14:02:56.374Z,0.50
2022-08-05T14:05:29.242Z,0.30
2022-08-05T14:08:20.421Z,0.50
2022-08-05T14:10:48.652Z,0.40
2022-08-05T14:13:15.518Z,0.20
2022-08-05T14:16:07.071Z,0.30
2022-08-05T14:18:29.035Z,0.30
2022-08-05T14:20:55.457Z,0.35
2022-08-05T14:23:25.110Z,0.32
2022-08-05T14:25:58.169Z,0.60
2022-08-05T14:28:29.471Z,0.30
2022-08-05T14:31:00.582Z,0.30
2022-08-05T14:33:27.551Z,0.30
2022-08-05T14:36:14.126Z,0.68
2022-08-05T14:38:40.535Z,0.20
2022-08-05T14:41:08.205Z,0.28
2022-08-05T14:44:01.810Z,0.52
2022-08-05T14:46:28.466Z,0.10
2022-08-05T14:48:59.522Z,0.40
2022-08-05T14:51:31.057Z,0.20
2022-08-05T14:54:28.753Z,0.32
2022-08-05T14:56:46.758Z,0.20
2022-08-05T15:01:54.645Z,0.22
2022-08-05T15:04:23.217Z,0.25
2022-08-05T15:06:54.083Z,0.40
2022-08-05T15:09:50.528Z,0.30
2022-08-05T15:12:11.489Z,0.30
2022-08-05T15:14:49.563Z,0.30
2022-08-05T15:17:46.289Z,0.50
2022-08-05T15:20:30.889Z,0.38
2022-08-05T15:23:06.833Z,0.28
2022-08-05T15:25:41.202Z,0.45
2022-08-05T15:28:19.633Z,0.40
2022-08-05T15:30:53.141Z,0.35
2022-08-05T15:34:04.642Z,0.30
2022-08-05T15:36:16.752Z,0.47
2022-08-05T15:38:44.720Z,1.10
2022-08-05T15:41:22.732Z,0.52
2022-08-05T15:43:51.396Z,0.68
2022-08-05T15:46:19.688Z,0.50
2022-08-05T15:48:52.746Z,0.30
2022-08-05T15:52:04.505Z,0.20
2022-08-05T15:54:15.686Z,0.40
2022-08-05T15:56:44.570Z,0.40
2022-08-05T15:59:19.957Z,0.43
2022-08-05T16:01:53.306Z,0.25
2022-08-05T16:04:25.698Z,0.28
2022-08-05T16:06:53.769Z,0.43
2022-08-05T16:09:22.265Z,0.22
2022-08-05T16:11:52.814Z,0.30
2022-08-05T16:14:20.091Z,0.30
2022-08-05T16:16:47.106Z,0.30
2022-08-05T16:19:25.270Z,0.30
2022-08-05T16:21:59.443Z,0.73
2022-08-05T16:24:41.394Z,0.50
2022-08-05T16:27:16.303Z,0.40
2022-08-05T16:29:47.226Z,0.43
2022-08-05T16:32:17.318Z,0.63
2022-08-05T16:34:50.765Z,0.68
2022-08-05T16:38:03.006Z,0.60
2022-08-05T16:40:07.508Z,0.50
2022-08-05T16:42:40.057Z,0.70
2022-08-05T16:46:05.826Z,0.60
2022-08-05T16:47:56.426Z,0.43
2022-08-05T16:50:26.203Z,0.65
2022-08-05T16:52:52.819Z,0.45
2022-08-05T16:55:23.157Z,0.80
2022-08-05T16:57:59.915Z,0.60
2022-08-05T17:00:34.412Z,0.70
2022-08-05T17:03:15.468Z,0.70
2022-08-05T17:05:50.181Z,0.75
2022-08-05T17:08:33.394Z,0.45
2022-08-05T17:11:08.728Z,0.60
2022-08-05T17:13:37.283Z,1.45
2022-08-05T17:16:29.869Z,1.38
2022-08-05T17:18:54.502Z,0.60
2022-08-05T17:21:20.943Z,2.65
2022-08-05T17:24:03.769Z,1.15
2022-08-05T17:26:33.371Z,0.70
2022-08-05T17:28:59.765Z,0.63
2022-08-05T17:31:56.537Z,0.63
2022-08-05T17:34:18.068Z,0.98
2022-08-05T17:36:44.729Z,0.50
2022-08-05T17:39:23.755Z,0.50
2022-08-05T17:42:20.410Z,1.00
2022-08-05T17:44:37.533Z,0.52
2022-08-05T17:47:04.145Z,0.43
2022-08-05T17:49:59.875Z,0.80
2022-08-05T17:52:17.229Z,0.47
2022-08-05T17:54:43.732Z,0.88
2022-08-05T17:57:12.059Z,0.40
2022-08-05T17:59:40.061Z,0.32
2022-08-05T18:02:10.846Z,0.80
2022-08-05T18:04:51.418Z,0.40
2022-08-05T18:07:20.116Z,0.57
2022-08-05T18:09:58.721Z,0.98
2022-08-05T18:12:27.406Z,0.90
2022-08-05T18:14:55.270Z,0.57
2022-08-05T18:18:00.481Z,0.88
2022-08-05T18:20:14.929Z,1.05
2022-08-05T18:22:54.739Z,0.47
2022-08-05T18:25:33.156Z,0.43
2022-08-05T18:27:59.854Z,0.60
2022-08-05T18:30:32.245Z,0.95
2022-08-05T18:33:00.807Z,0.80
2022-08-05T18:36:00.851Z,0.70
2022-08-05T18:38:25.902Z,0.52
2022-08-05T18:41:53.902Z,0.95
2022-08-05T18:43:53.058Z,0.65
2022-08-05T18:46:20.648Z,1.27
2022-08-05T18:48:51.892Z,0.60
2022-08-05T18:52:06.916Z,0.93
2022-08-05T18:54:30.905Z,0.70
2022-08-05T18:57:00.862Z,0.68
2022-08-05T18:59:43.750Z,0.70
2022-08-05T19:02:26.970Z,0.47
2022-08-05T19:05:03.189Z,0.50
2022-08-05T19:07:45.959Z,0.82
2022-08-05T19:10:18.420Z,1.05
2022-08-05T19:12:53.270Z,0.80
2022-08-05T19:15:56.806Z,0.40
2022-08-05T19:18:10.479Z,0.47
2022-08-05T19:20:41.375Z,1.27
2022-08-05T19:24:03.588Z,0.40
2022-08-05T19:26:01.643Z,0.85
2022-08-05T19:28:29.204Z,0.47
2022-08-05T19:30:55.861Z,0.50
2022-08-05T19:33:36.229Z,0.80
2022-08-05T19:36:06.882Z,0.80
2022-08-05T19:38:36.999Z,0.45
2022-08-05T19:41:07.366Z,0.70
2022-08-05T19:44:05.629Z,0.88
2022-08-05T19:46:30.135Z,1.33
2022-08-05T19:49:03.035Z,0.40
2022-08-05T19:52:08.661Z,0.60
2022-08-05T19:54:45.871Z,0.50
2022-08-05T19:57:15.300Z,0.45
2022-08-05T19:59:55.205Z,0.57
2022-08-05T20:02:31.523Z,0.65
2022-08-05T20:04:58.917Z,0.70
2022-08-05T20:07:45.746Z,0.45
2022-08-05T20:10:13.806Z,0.88
2022-08-05T20:12:46.068Z,1.02
2022-08-05T20:15:48.782Z,0.55
2022-08-05T20:18:10.520Z,1.08
2022-08-05T20:20:56.595Z,1.30
2022-08-05T20:26:16.536Z,0.85
2022-08-05T20:28:53.759Z,1.13
2022-08-05T20:31:37.189Z,0.60
2022-08-05T20:34:12.371Z,1.23
2022-08-05T20:36:43.369Z,0.70
2022-08-05T20:39:13.165Z,1.23
2022-08-05T20:41:44.265Z,0.73
2022-08-05T20:44:19.418Z,0.60
2022-08-05T20:47:03.288Z,0.75
2022-08-05T20:49:33.230Z,1.25
2022-08-05T20:52:06.269Z,0.73
2022-08-05T20:54:55.181Z,0.95
2022-08-05T20:57:42.269Z,0.55
2022-08-05T21:00:40.726Z,0.60
2022-08-05T21:03:00.124Z,1.02
2022-08-05T21:05:38.131Z,0.70
2022-08-05T21:08:14.632Z,1.08
2022-08-05T21:10:48.644Z,0.70
2022-08-05T21:13:36.734Z,1.02
2022-08-05T21:16:02.284Z,0.70
2022-08-05T21:18:30.178Z,0.82
2022-08-05T21:20:57.303Z,0.73
2022-08-05T21:23:24.577Z,0.90
2022-08-05T21:25:55.405Z,1.13
2022-08-05T21:28:23.914Z,0.70
2022-08-05T21:30:57.040Z,1.17
2022-08-05T21:33:23.701Z,0.80
2022-08-05T21:35:58.232Z,1.33
2022-08-05T21:38:26.409Z,0.73
2022-08-05T21:40:53.049Z,1.30
2022-08-05T21:43:24.146Z,0.40
2022-08-05T21:45:57.633Z,1.73
2022-08-05T21:48:27.999Z,0.70
2022-08-05T21:50:54.923Z,0.70
2022-08-05T21:53:27.019Z,0.68
2022-08-05T21:56:05.200Z,0.57
2022-08-05T21:58:41.983Z,0.43
2022-08-05T22:01:10.625Z,0.70
2022-08-05T22:03:51.854Z,0.75
2022-08-05T22:06:22.843Z,0.60
2022-08-05T22:09:01.506Z,0.63
2022-08-05T22:11:39.855Z,0.60
2022-08-05T22:14:32.761Z,0.80
2022-08-05T22:16:57.029Z,0.60
2022-08-05T22:20:03.443Z,1.45
2022-08-05T22:22:15.436Z,0.60
2022-08-05T22:25:01.426Z,0.52
2022-08-05T22:28:09.537Z,0.63
2022-08-05T22:30:32.277Z,0.70
2022-08-05T22:33:01.959Z,0.52
2022-08-05T22:35:31.223Z,0.30
2022-08-05T22:40:41.834Z,0.68
2022-08-05T22:43:16.231Z,0.40
2022-08-05T22:46:08.772Z,0.43
2022-08-05T22:48:39.228Z,0.38
2022-08-05T22:51:06.843Z,0.52
2022-08-05T22:56:02.514Z,0.47
2022-08-05T22:58:28.963Z,0.40
2022-08-05T23:00:57.048Z,0.47
2022-08-05T23:03:58.125Z,0.40
2022-08-05T23:06:10.293Z,0.50
2022-08-05T23:08:36.847Z,0.30
2022-08-05T23:11:03.526Z,0.55
2022-08-05T23:13:29.987Z,0.40
2022-08-05T23:15:56.706Z,0.30
2022-08-05T23:18:23.111Z,0.30
2022-08-05T23:20:49.593Z,0.20
2022-08-05T23:23:16.511Z,0.93
2022-08-05T23:25:53.203Z,0.73
2022-08-05T23:28:30.841Z,0.43
2022-08-05T23:31:14.795Z,0.30
2022-08-05T23:34:04.083Z,0.30
2022-08-05T23:36:38.383Z,0.20
2022-08-05T23:39:05.538Z,1.17
2022-08-05T23:41:34.289Z,0.50
2022-08-05T23:44:06.467Z,0.30
2022-08-05T23:46:37.449Z,0.30
2022-08-05T23:49:16.442Z,0.40
2022-08-05T23:52:02.832Z,0.38
2022-08-05T23:55:31.226Z,0.22
2022-08-05T23:58:00.699Z,0.30
